Time;durP1;ratioP1;P1;durP2;ratioP2;P2;SDS_P1;SDS_P2;PMS_P1;PMS_P2;Temp;Humidity;BMP_temperature;BMP_pressure;BME280_temperature;BME280_humidity;BME280_pressure;Samples;Min_cycle;Max_cycle;Signal;HPM_P1;HPM_P2
2021/01/29 07:00:13;;;;;;;38.80;20.52;;;;;;;;;;5110517;27;20369;-64
2021/01/29 07:02:41;;;;;;;36.58;20.38;;;;;;;;;;5092661;28;20806;-61
2021/01/29 07:05:14;;;;;;;32.22;17.73;;;;;;;;;;5097318;28;20031;-62
2021/01/29 07:07:49;;;;;;;29.50;16.60;;;;;;;;;;5092820;28;20020;-63
2021/01/29 07:10:24;;;;;;;33.30;16.08;;;;;;;;;;5102957;28;20030;-62
2021/01/29 07:12:59;;;;;;;26.25;17.10;;;;;;;;;;5094605;28;20380;-63
2021/01/29 07:15:34;;;;;;;31.13;18.15;;;;;;;;;;5101904;28;20475;-63
2021/01/29 07:18:09;;;;;;;31.77;18.10;;;;;;;;;;5089515;28;20024;-61
2021/01/29 07:20:34;;;;;;;28.90;17.27;;;;;;;;;;5094142;28;20024;-62
2021/01/29 07:23:09;;;;;;;32.13;17.02;;;;;;;;;;5098187;28;20375;-61
2021/01/29 07:25:45;;;;;;;31.42;17.80;;;;;;;;;;5100012;28;20026;-61
2021/01/29 07:28:18;;;;;;;30.65;18.13;;;;;;;;;;5104126;28;20028;-61
2021/01/29 07:30:44;;;;;;;30.75;19.23;;;;;;;;;;5102698;28;20020;-62
2021/01/29 07:33:20;;;;;;;36.25;19.45;;;;;;;;;;5101067;28;20373;-62
2021/01/29 07:35:46;;;;;;;32.03;18.85;;;;;;;;;;5102255;28;20019;-62
2021/01/29 07:38:17;;;;;;;28.42;17.95;;;;;;;;;;5093583;28;20096;-64
2021/01/29 07:40:53;;;;;;;30.70;18.10;;;;;;;;;;5096909;28;20031;-64
2021/01/29 07:43:29;;;;;;;29.85;18.02;;;;;;;;;;5099453;28;20073;-62
2021/01/29 07:45:55;;;;;;;29.08;17.23;;;;;;;;;;5098663;28;20054;-64
2021/01/29 07:48:22;;;;;;;31.02;18.05;;;;;;;;;;5092967;28;20023;-63
2021/01/29 07:50:57;;;;;;;36.67;20.17;;;;;;;;;;5101254;28;20506;-63
2021/01/29 07:53:32;;;;;;;37.08;20.90;;;;;;;;;;5092029;28;20020;-63
2021/01/29 07:55:58;;;;;;;38.67;21.55;;;;;;;;;;5099381;28;20031;-63
2021/01/29 07:58:29;;;;;;;39.97;23.35;;;;;;;;;;5104755;28;20047;-64
2021/01/29 08:01:01;;;;;;;40.83;22.88;;;;;;;;;;5082457;28;20047;-62
2021/01/29 08:03:36;;;;;;;38.17;23.27;;;;;;;;;;5103167;28;20023;-63
2021/01/29 08:06:03;;;;;;;42.58;23.10;;;;;;;;;;5099043;28;20016;-64
2021/01/29 08:08:32;;;;;;;39.00;23.13;;;;;;;;;;5105481;28;20043;-60
2021/01/29 08:10:59;;;;;;;41.95;22.35;;;;;;;;;;5087909;28;20039;-61
2021/01/29 08:13:35;;;;;;;40.70;22.75;;;;;;;;;;5089040;28;20470;-60
2021/01/29 08:16:02;;;;;;;45.38;25.08;;;;;;;;;;5078881;28;20039;-57
2021/01/29 08:18:27;;;;;;;41.13;22.08;;;;;;;;;;5098823;28;20051;-59
2021/01/29 08:21:02;;;;;;;40.85;21.67;;;;;;;;;;5088866;28;20020;-59
2021/01/29 08:23:28;;;;;;;32.67;20.02;;;;;;;;;;5084769;28;20369;-59
2021/01/29 08:26:03;;;;;;;45.55;20.48;;;;;;;;;;5082662;28;20070;-59
2021/01/29 08:28:29;;;;;;;35.45;20.60;;;;;;;;;;5081265;28;20033;-60
2021/01/29 08:31:04;;;;;;;36.53;18.95;;;;;;;;;;5077923;28;20066;-59
2021/01/29 08:33:44;;;;;;;31.85;19.67;;;;;;;;;;5093334;28;20031;-59
2021/01/29 08:36:19;;;;;;;43.25;21.08;;;;;;;;;;5092138;28;20052;-59
2021/01/29 08:38:45;;;;;;;39.90;21.73;;;;;;;;;;5092954;28;20383;-59
2021/01/29 08:41:20;;;;;;;43.10;23.52;;;;;;;;;;5082684;28;20020;-65
2021/01/29 08:43:48;;;;;;;45.40;24.67;;;;;;;;;;5092838;28;20020;-73
2021/01/29 08:46:14;;;;;;;43.67;23.93;;;;;;;;;;5089910;28;20103;-70
2021/01/29 08:48:52;;;;;;;38.72;21.00;;;;;;;;;;5078678;28;20213;-74
2021/01/29 08:51:18;;;;;;;34.00;19.88;;;;;;;;;;5082935;28;20095;-70
2021/01/29 08:53:54;;;;;;;36.40;20.50;;;;;;;;;;5091861;28;20065;-70
2021/01/29 08:56:29;;;;;;;38.67;21.20;;;;;;;;;;5087330;28;20013;-70
2021/01/29 08:58:59;;;;;;;35.55;21.02;;;;;;;;;;5083457;28;20075;-71
2021/01/29 09:01:27;;;;;;;36.00;21.08;;;;;;;;;;5084171;28;20365;-71
2021/01/29 09:04:02;;;;;;;37.83;22.33;;;;;;;;;;5084175;28;20095;-71
2021/01/29 09:06:28;;;;;;;38.90;23.45;;;;;;;;;;5078518;28;20043;-70
2021/01/29 09:08:56;;;;;;;43.08;23.88;;;;;;;;;;5070838;28;20036;-70
2021/01/29 09:11:24;;;;;;;42.95;23.02;;;;;;;;;;5087940;28;20384;-68
2021/01/29 09:13:59;;;;;;;42.15;24.25;;;;;;;;;;5082530;28;20108;-69
2021/01/29 09:16:25;;;;;;;41.47;22.48;;;;;;;;;;5082382;28;20035;-69
2021/01/29 09:19:00;;;;;;;38.53;22.13;;;;;;;;;;5087207;28;20050;-68
2021/01/29 09:21:32;;;;;;;43.60;22.63;;;;;;;;;;5087960;28;20016;-74
2021/01/29 09:24:07;;;;;;;39.13;23.55;;;;;;;;;;5090633;28;20537;-71
2021/01/29 09:26:42;;;;;;;33.00;18.80;;;;;;;;;;5083554;28;20073;-65
2021/01/29 09:29:15;;;;;;;37.28;22.60;;;;;;;;;;5085746;28;20025;-66
2021/01/29 09:31:41;;;;;;;37.60;18.45;;;;;;;;;;5076806;28;20024;-64
2021/01/29 09:34:10;;;;;;;33.38;20.55;;;;;;;;;;5074914;28;20029;-63
2021/01/29 09:36:38;;;;;;;31.92;18.52;;;;;;;;;;5085821;28;20102;-64
2021/01/29 09:39:07;;;;;;;33.88;18.17;;;;;;;;;;5077948;28;20392;-63
2021/01/29 09:41:37;;;;;;;34.83;20.03;;;;;;;;;;5085924;28;20070;-64
2021/01/29 09:44:13;;;;;;;33.72;19.58;;;;;;;;;;5090392;28;20392;-63
2021/01/29 09:46:40;;;;;;;37.55;22.73;;;;;;;;;;5079626;28;20024;-63
2021/01/29 09:49:08;;;;;;;40.13;24.00;;;;;;;;;;5073278;28;20046;-63
2021/01/29 09:51:43;;;;;;;41.50;24.10;;;;;;;;;;5084292;28;20080;-63
2021/01/29 09:54:13;;;;;;;45.58;27.98;;;;;;;;;;5075973;28;20033;-62
2021/01/29 09:56:41;;;;;;;50.10;28.98;;;;;;;;;;5082705;28;20103;-65
2021/01/29 09:59:16;;;;;;;52.50;29.67;;;;;;;;;;5083883;28;20184;-66
2021/01/29 10:01:45;;;;;;;53.50;31.58;;;;;;;;;;5082404;28;20034;-64
2021/01/29 10:04:20;;;;;;;51.88;28.48;;;;;;;;;;5086990;28;20023;-64
2021/01/29 10:06:53;;;;;;;50.80;28.63;;;;;;;;;;5088369;28;20020;-71
2021/01/29 10:09:21;;;;;;;46.95;26.55;;;;;;;;;;5090449;28;20107;-70
2021/01/29 10:11:55;;;;;;;42.47;23.52;;;;;;;;;;5069464;28;20025;-70
2021/01/29 10:14:24;;;;;;;47.80;24.52;;;;;;;;;;5084215;28;20423;-70
2021/01/29 10:16:53;;;;;;;44.95;23.00;;;;;;;;;;5088663;28;20020;-69
2021/01/29 10:19:28;;;;;;;39.15;23.60;;;;;;;;;;5089836;28;20020;-70
2021/01/29 10:21:57;;;;;;;36.97;20.15;;;;;;;;;;5081005;28;20005;-70
2021/01/29 10:24:30;;;;;;;29.23;18.43;;;;;;;;;;5086478;28;20024;-70
2021/01/29 10:26:59;;;;;;;31.85;19.17;;;;;;;;;;5073914;28;20253;-72
2021/01/29 10:29:26;;;;;;;39.38;22.10;;;;;;;;;;5083509;28;20028;-70
2021/01/29 10:32:01;;;;;;;36.88;21.55;;;;;;;;;;5082254;28;20065;-70
2021/01/29 10:34:29;;;;;;;45.97;24.98;;;;;;;;;;5074974;28;20016;-70
2021/01/29 10:36:57;;;;;;;41.40;23.60;;;;;;;;;;5069381;28;20031;-63
2021/01/29 10:39:23;;;;;;;35.58;22.52;;;;;;;;;;5077744;28;20014;-63
2021/01/29 10:41:56;;;;;;;43.08;22.45;;;;;;;;;;5072838;28;20541;-65
2021/01/29 10:44:25;;;;;;;35.00;18.85;;;;;;;;;;5075507;28;20107;-64
2021/01/29 10:46:57;;;;;;;30.70;17.95;;;;;;;;;;5069655;28;20173;-64
2021/01/29 10:49:28;;;;;;;26.63;14.43;;;;;;;;;;5076776;28;20117;-64
2021/01/29 10:51:54;;;;;;;25.35;14.52;;;;;;;;;;5081116;28;20469;-64
2021/01/29 10:54:21;;;;;;;25.23;14.85;;;;;;;;;;5084277;28;20028;-64
2021/01/29 10:56:58;;;;;;;26.38;15.68;;;;;;;;;;5072857;28;20017;-67
2021/01/29 10:59:27;;;;;;;29.35;17.88;;;;;;;;;;5083859;28;20043;-65
2021/01/29 11:01:52;;;;;;;;;;;;;;;;;;5078355;28;20030;-65
2021/01/29 11:04:23;;;;;;;32.23;17.60;;;;;;;;;;5083907;28;20291;-64
2021/01/29 11:06:58;;;;;;;35.88;21.05;;;;;;;;;;5098773;28;20264;-65
2021/01/29 11:09:25;;;;;;;33.03;18.48;;;;;;;;;;5090176;28;20035;-65
2021/01/29 11:11:58;;;;;;;30.98;17.90;;;;;;;;;;5078249;28;20024;-65
2021/01/29 11:14:28;;;;;;;28.15;17.08;;;;;;;;;;5080926;28;20069;-65
2021/01/29 11:16:57;;;;;;;28.40;17.60;;;;;;;;;;5089431;28;20385;-65
2021/01/29 11:19:23;;;;;;;;;;;;;;;;;;5083785;28;20039;-65
2021/01/29 11:22:03;;;;;;;21.15;14.20;;;;;;;;;;5082149;28;19904;-65
2021/01/29 11:24:38;;;;;;;28.27;15.65;;;;;;;;;;5072169;28;20176;-64
2021/01/29 11:27:04;;;;;;;22.52;15.18;;;;;;;;;;5072851;28;20030;-63
2021/01/29 11:29:39;;;;;;;23.63;15.60;;;;;;;;;;5084218;28;20041;-64
2021/01/29 11:32:14;;;;;;;24.38;15.07;;;;;;;;;;5082543;28;20094;-70
2021/01/29 11:34:39;;;;;;;24.23;14.93;;;;;;;;;;5082380;28;20034;-70
2021/01/29 11:37:09;;;;;;;26.55;15.93;;;;;;;;;;5086183;28;20368;-64
2021/01/29 11:39:40;;;;;;;27.33;16.15;;;;;;;;;;5076241;28;20035;-64
2021/01/29 11:42:06;;;;;;;24.40;15.45;;;;;;;;;;5077763;28;20111;-66
2021/01/29 11:44:39;;;;;;;25.30;14.68;;;;;;;;;;5078717;28;20012;-72
2021/01/29 11:47:07;;;;;;;31.17;16.17;;;;;;;;;;5081107;28;20394;-66
2021/01/29 11:49:37;;;;;;;27.60;16.17;;;;;;;;;;5080803;28;20111;-67
2021/01/29 11:52:09;;;;;;;24.98;14.80;;;;;;;;;;5090251;28;20117;-65
2021/01/29 11:54:39;;;;;;;24.55;15.38;;;;;;;;;;5083559;28;20539;-65
2021/01/29 11:57:10;;;;;;;26.30;15.55;;;;;;;;;;5077937;28;20016;-64
2021/01/29 11:59:45;;;;;;;25.20;14.20;;;;;;;;;;5089662;28;20066;-64
2021/01/29 12:02:11;;;;;;;25.90;13.98;;;;;;;;;;5085155;28;20020;-64
2021/01/29 12:04:46;;;;;;;24.55;14.45;;;;;;;;;;5089252;28;20017;-65
2021/01/29 12:07:15;;;;;;;27.48;15.52;;;;;;;;;;5082392;28;20029;-65
2021/01/29 12:09:45;;;;;;;33.15;15.40;;;;;;;;;;5089739;28;20023;-65
2021/01/29 12:12:20;;;;;;;27.13;16.45;;;;;;;;;;5085533;28;20032;-66
2021/01/29 12:14:55;;;;;;;31.48;15.77;;;;;;;;;;5087907;28;20035;-66
2021/01/29 12:17:23;;;;;;;31.45;15.88;;;;;;;;;;5092309;28;20020;-66
2021/01/29 12:19:49;;;;;;;28.02;16.23;;;;;;;;;;5082344;28;20020;-65
2021/01/29 12:22:24;;;;;;;33.35;18.30;;;;;;;;;;5079471;28;20071;-62
2021/01/29 12:25:09;;;;;;;30.98;16.02;;;;;;;;;;5082902;28;20056;-63
2021/01/29 12:27:42;;;;;;;30.83;17.17;;;;;;;;;;5092576;28;20432;-61
2021/01/29 12:30:11;;;;;;;41.55;20.27;;;;;;;;;;5092109;28;20040;-61
2021/01/29 12:32:40;;;;;;;31.80;16.92;;;;;;;;;;5076476;28;20020;-73
2021/01/29 12:35:06;;;;;;;35.08;20.38;;;;;;;;;;5076948;28;20017;-74
2021/01/29 12:37:33;;;;;;;35.13;19.63;;;;;;;;;;5086608;28;20012;-73
2021/01/29 12:40:08;;;;;;;33.95;19.42;;;;;;;;;;5083153;28;20421;-74
2021/01/29 12:42:43;;;;;;;35.38;20.45;;;;;;;;;;5094240;28;20395;-74
2021/01/29 12:45:10;;;;;;;43.33;22.73;;;;;;;;;;5077865;28;20012;-72
2021/01/29 12:47:36;;;;;;;41.13;22.30;;;;;;;;;;5086158;28;20024;-73
2021/01/29 12:50:02;;;;;;;40.70;22.35;;;;;;;;;;5086317;28;20032;-73
2021/01/29 12:52:32;;;;;;;38.63;21.85;;;;;;;;;;5085284;28;20396;-72
2021/01/29 12:55:08;;;;;;;35.28;20.45;;;;;;;;;;5072994;28;20414;-69
2021/01/29 12:57:34;;;;;;;32.50;19.95;;;;;;;;;;5085528;28;20008;-72
2021/01/29 13:00:12;;;;;;;37.35;20.30;;;;;;;;;;5081148;28;20055;-71
2021/01/29 13:02:47;;;;;;;47.92;21.88;;;;;;;;;;5071297;28;20024;-72
2021/01/29 13:05:16;;;;;;;60.92;27.13;;;;;;;;;;5078055;28;20008;-72
2021/01/29 13:07:48;;;;;;;95.82;35.65;;;;;;;;;;5084100;28;20115;-72
2021/01/29 13:10:19;;;;;;;136.98;46.20;;;;;;;;;;5084726;28;20032;-71
2021/01/29 13:12:47;;;;;;;80.85;34.97;;;;;;;;;;5076868;28;20009;-72
2021/01/29 13:15:23;;;;;;;67.80;30.48;;;;;;;;;;5088694;28;20026;-70
2021/01/29 13:17:57;;;;;;;49.58;26.52;;;;;;;;;;5078674;28;20044;-68
2021/01/29 13:20:23;;;;;;;85.85;37.55;;;;;;;;;;5086268;28;20098;-67
2021/01/29 13:23:08;;;;;;;100.25;39.17;;;;;;;;;;5073709;28;20062;-70
2021/01/29 13:25:33;;;;;;;71.93;32.92;;;;;;;;;;5091954;28;20020;-70
2021/01/29 13:28:08;;;;;;;64.75;31.65;;;;;;;;;;5092430;28;20012;-72
2021/01/29 13:30:33;;;;;;;49.45;26.38;;;;;;;;;;5083543;28;20043;-71
2021/01/29 13:33:03;;;;;;;61.10;30.65;;;;;;;;;;5091076;28;20066;-69
2021/01/29 13:35:31;;;;;;;65.28;34.20;;;;;;;;;;5089572;28;20034;-71
2021/01/29 13:38:07;;;;;;;54.43;30.10;;;;;;;;;;5083105;28;20047;-70
2021/01/29 13:40:32;;;;;;;68.00;35.50;;;;;;;;;;5089080;28;20323;-70
2021/01/29 13:43:08;;;;;;;51.78;29.40;;;;;;;;;;5092478;28;20020;-70
2021/01/29 13:45:34;;;;;;;73.25;37.05;;;;;;;;;;5089093;28;20099;-73
2021/01/29 13:48:02;;;;;;;58.75;31.45;;;;;;;;;;5069673;28;20134;-68
2021/01/29 13:50:37;;;;;;;68.43;35.38;;;;;;;;;;5084027;28;20028;-68
2021/01/29 13:53:05;;;;;;;58.50;31.40;;;;;;;;;;5093725;28;20138;-65
2021/01/29 13:55:31;;;;;;;53.22;27.92;;;;;;;;;;5089673;28;20077;-65
2021/01/29 13:58:04;;;;;;;53.53;30.33;;;;;;;;;;5088759;28;20024;-64
2021/01/29 14:00:36;;;;;;;49.03;26.40;;;;;;;;;;5077851;28;20369;-63
2021/01/29 14:03:18;;;;;;;58.97;30.10;;;;;;;;;;5087806;28;20020;-63
2021/01/29 14:05:47;;;;;;;51.30;28.13;;;;;;;;;;5080864;28;20091;-66
2021/01/29 14:08:17;;;;;;;58.50;30.40;;;;;;;;;;5077732;28;20374;-66
2021/01/29 14:10:51;;;;;;;53.08;28.05;;;;;;;;;;5088684;28;20019;-65
2021/01/29 14:13:26;;;;;;;55.90;28.05;;;;;;;;;;5090709;28;20012;-66
2021/01/29 14:16:04;;;;;;;48.67;26.25;;;;;;;;;;5084086;28;20016;-66
2021/01/29 14:18:38;;;;;;;43.37;26.47;;;;;;;;;;5093062;28;20012;-75
2021/01/29 14:21:04;;;;;;;43.92;24.42;;;;;;;;;;5072450;28;20296;-74
